createdAt,value
2022-11-17T00:01:52.425Z,0.60
2022-11-17T00:04:19.183Z,0.87
2022-11-17T00:06:46.000Z,0.60
2022-11-17T00:09:17.378Z,0.60
2022-11-17T00:12:03.328Z,0.80
2022-11-17T00:14:33.155Z,0.80
2022-11-17T00:17:00.754Z,0.60
2022-11-17T00:19:45.896Z,0.83
2022-11-17T00:22:12.671Z,0.70
2022-11-17T00:24:39.390Z,0.90
2022-11-17T00:27:06.234Z,0.90
2022-11-17T00:29:33.875Z,0.90
2022-11-17T00:32:21.460Z,0.73
2022-11-17T00:34:48.176Z,1.00
2022-11-17T00:37:15.188Z,0.80
2022-11-17T00:39:41.953Z,0.80
2022-11-17T00:42:08.652Z,0.73
2022-11-17T00:44:35.319Z,0.70
2022-11-17T00:47:02.008Z,0.53
2022-11-17T00:49:28.711Z,0.73
2022-11-17T00:51:55.629Z,0.70
2022-11-17T00:54:22.475Z,0.83
2022-11-17T00:56:49.175Z,0.70
2022-11-17T00:59:16.202Z,0.83
2022-11-17T01:01:43.243Z,0.60
2022-11-17T01:04:10.022Z,0.50
2022-11-17T01:06:38.619Z,0.50
2022-11-17T01:09:17.226Z,0.87
2022-11-17T01:11:44.120Z,0.70
2022-11-17T01:14:13.188Z,0.70
2022-11-17T01:16:39.957Z,0.73
2022-11-17T01:19:06.752Z,0.50
2022-11-17T01:21:33.540Z,0.80
2022-11-17T01:24:01.107Z,0.70
2022-11-17T01:26:33.097Z,0.60
2022-11-17T01:29:00.647Z,0.70
2022-11-17T01:31:29.375Z,0.40
2022-11-17T01:33:56.184Z,0.67
2022-11-17T01:36:28.480Z,0.50
2022-11-17T01:38:55.356Z,0.70
2022-11-17T01:41:23.752Z,0.50
2022-11-17T01:43:57.771Z,0.60
2022-11-17T01:46:37.863Z,0.50
2022-11-17T01:49:12.723Z,0.60
2022-11-17T01:51:45.063Z,0.60
2022-11-17T01:54:12.141Z,0.70
2022-11-17T01:56:41.703Z,0.60
2022-11-17T01:59:21.240Z,0.47
2022-11-17T02:01:57.115Z,1.07
2022-11-17T02:04:31.599Z,0.60
2022-11-17T02:07:06.161Z,0.60
2022-11-17T02:09:33.866Z,0.60
2022-11-17T02:12:00.614Z,0.80
2022-11-17T02:14:27.321Z,1.00
2022-11-17T02:16:54.054Z,0.80
2022-11-17T02:19:20.777Z,0.80
2022-11-17T02:22:11.544Z,0.63
2022-11-17T02:24:56.764Z,0.80
2022-11-17T02:27:42.240Z,0.70
2022-11-17T02:30:16.765Z,0.90
2022-11-17T02:33:12.786Z,0.70
2022-11-17T02:36:16.898Z,0.80
2022-11-17T02:38:55.559Z,0.80
2022-11-17T02:41:36.265Z,0.60
2022-11-17T02:44:41.489Z,0.80
2022-11-17T02:47:18.987Z,0.70
2022-11-17T02:49:47.947Z,0.87
2022-11-17T02:52:14.604Z,1.00
2022-11-17T02:54:41.375Z,0.90
2022-11-17T02:57:30.206Z,0.80
2022-11-17T02:59:58.078Z,1.63
2022-11-17T03:02:55.319Z,1.17
2022-11-17T03:05:40.485Z,0.87
2022-11-17T03:08:10.108Z,0.83
2022-11-17T03:10:45.037Z,0.87
2022-11-17T03:13:24.734Z,0.70
2022-11-17T03:15:55.356Z,0.97
2022-11-17T03:18:37.102Z,0.70
2022-11-17T03:21:22.857Z,0.87
2022-11-17T03:23:56.479Z,0.50
2022-11-17T03:26:25.193Z,0.90
2022-11-17T03:28:51.918Z,0.90
2022-11-17T03:31:18.616Z,0.83
2022-11-17T03:33:45.521Z,0.97
2022-11-17T03:36:16.857Z,0.77
2022-11-17T03:38:47.468Z,0.80
2022-11-17T03:41:14.396Z,0.83
2022-11-17T03:43:41.459Z,0.60
2022-11-17T03:46:10.701Z,0.53
2022-11-17T03:48:45.041Z,0.60
2022-11-17T03:51:16.067Z,0.50
2022-11-17T03:53:42.899Z,0.63
2022-11-17T03:56:17.299Z,0.70
2022-11-17T03:58:54.737Z,0.97
2022-11-17T04:01:21.561Z,0.97
2022-11-17T04:03:48.581Z,0.77
2022-11-17T04:06:15.286Z,0.80
2022-11-17T04:08:42.046Z,0.80
2022-11-17T04:11:27.092Z,2.30
2022-11-17T04:14:12.351Z,0.70
2022-11-17T04:16:39.047Z,0.90
2022-11-17T04:19:05.700Z,0.80
2022-11-17T04:21:32.399Z,0.70
2022-11-17T04:23:59.119Z,0.87
2022-11-17T04:26:45.365Z,0.77
2022-11-17T04:29:12.050Z,0.77
2022-11-17T04:31:38.753Z,0.73
2022-11-17T04:34:05.910Z,0.60
2022-11-17T04:36:40.080Z,0.80
2022-11-17T04:39:06.856Z,0.70
2022-11-17T04:41:53.105Z,1.33
2022-11-17T04:44:29.586Z,0.70
2022-11-17T04:46:56.408Z,0.50
2022-11-17T04:49:24.135Z,0.70
2022-11-17T04:51:51.429Z,0.60
2022-11-17T04:54:19.697Z,0.60
2022-11-17T04:56:46.629Z,0.80
2022-11-17T04:59:13.346Z,1.13
2022-11-17T05:01:40.140Z,0.70
2022-11-17T05:04:08.405Z,1.03
2022-11-17T05:06:42.066Z,0.70
2022-11-17T05:09:10.640Z,1.13
2022-11-17T05:11:55.622Z,0.90
2022-11-17T05:14:23.233Z,1.40
2022-11-17T05:17:09.485Z,1.60
2022-11-17T05:19:42.279Z,1.60
2022-11-17T05:22:27.945Z,0.90
2022-11-17T05:24:54.889Z,0.80
2022-11-17T05:27:22.150Z,0.80
2022-11-17T05:29:48.934Z,1.17
2022-11-17T05:32:16.084Z,0.80
2022-11-17T05:34:42.780Z,1.30
2022-11-17T05:37:09.449Z,1.03
2022-11-17T05:39:36.159Z,1.07
2022-11-17T05:42:02.962Z,1.63
2022-11-17T05:44:29.683Z,0.93
2022-11-17T05:46:56.431Z,0.50
2022-11-17T05:49:24.045Z,0.70
2022-11-17T05:51:53.009Z,0.70
2022-11-17T05:54:20.414Z,0.60
2022-11-17T05:56:48.494Z,0.70
2022-11-17T05:59:28.059Z,0.70
2022-11-17T06:02:02.447Z,0.90
2022-11-17T06:04:29.409Z,1.27
2022-11-17T06:06:59.592Z,1.23
2022-11-17T06:09:35.619Z,0.60
2022-11-17T06:12:05.941Z,0.90
2022-11-17T06:14:34.285Z,1.10
2022-11-17T06:17:03.769Z,1.00
2022-11-17T06:19:39.615Z,0.67
2022-11-17T06:22:13.946Z,0.90
2022-11-17T06:24:41.852Z,0.83
2022-11-17T06:27:08.787Z,0.73
2022-11-17T06:29:38.247Z,0.77
2022-11-17T06:32:07.579Z,0.90
2022-11-17T06:34:35.045Z,2.70
2022-11-17T06:37:01.776Z,1.03
2022-11-17T06:39:28.497Z,0.70
2022-11-17T06:41:55.316Z,1.00
2022-11-17T06:44:21.994Z,0.97
2022-11-17T06:46:49.321Z,1.50
2022-11-17T06:49:16.304Z,1.10
2022-11-17T06:51:45.342Z,1.60
2022-11-17T06:54:14.527Z,1.10
2022-11-17T06:56:41.747Z,1.27
2022-11-17T06:59:08.445Z,1.17
2022-11-17T07:01:35.205Z,1.50
2022-11-17T07:04:02.010Z,1.30
2022-11-17T07:06:28.871Z,1.20
2022-11-17T07:08:55.582Z,1.50
2022-11-17T07:11:22.437Z,1.50
2022-11-17T07:13:49.160Z,1.80
2022-11-17T07:16:22.952Z,1.60
2022-11-17T07:18:50.512Z,1.03
2022-11-17T07:21:18.009Z,1.87
2022-11-17T07:23:45.719Z,1.40
2022-11-17T07:26:12.601Z,1.30
2022-11-17T07:28:39.472Z,1.50
2022-11-17T07:31:07.422Z,1.07
2022-11-17T07:33:34.527Z,0.90
2022-11-17T07:36:06.079Z,1.13
2022-11-17T07:38:34.398Z,1.03
2022-11-17T07:41:01.543Z,1.17
2022-11-17T07:43:28.396Z,1.13
2022-11-17T07:45:55.344Z,1.20
2022-11-17T07:48:22.122Z,0.90
2022-11-17T07:50:49.186Z,1.00
2022-11-17T07:53:15.963Z,1.33
2022-11-17T07:55:42.798Z,1.10
2022-11-17T07:58:09.544Z,0.90
2022-11-17T08:00:36.789Z,0.87
2022-11-17T08:03:04.390Z,1.20
2022-11-17T08:05:32.340Z,1.13
2022-11-17T08:07:59.544Z,1.10
2022-11-17T08:10:31.443Z,1.50
2022-11-17T08:13:00.765Z,1.80
2022-11-17T08:15:28.314Z,2.83
2022-11-17T08:17:56.275Z,3.30
2022-11-17T08:20:23.393Z,2.47
2022-11-17T08:22:50.624Z,4.60
2022-11-17T08:25:18.281Z,3.00
2022-11-17T08:27:45.171Z,40.17
2022-11-17T08:30:12.198Z,39.63
2022-11-17T08:32:39.032Z,32.33
2022-11-17T08:35:07.025Z,25.90
2022-11-17T08:37:33.815Z,13.40
2022-11-17T08:40:00.631Z,11.30
2022-11-17T08:42:27.416Z,6.63
2022-11-17T08:44:54.207Z,5.30
2022-11-17T08:47:20.978Z,5.37
2022-11-17T08:49:47.720Z,3.90
2022-11-17T08:52:14.835Z,3.77
2022-11-17T08:54:41.619Z,3.90
2022-11-17T08:57:08.671Z,3.00
2022-11-17T08:59:35.605Z,2.67
2022-11-17T09:02:02.394Z,3.17
2022-11-17T09:04:29.146Z,2.60
2022-11-17T09:06:55.858Z,1.73
2022-11-17T09:09:22.739Z,1.60
2022-11-17T09:11:49.520Z,1.43
2022-11-17T09:14:16.239Z,1.73
2022-11-17T09:16:42.997Z,1.93
2022-11-17T09:19:09.737Z,1.40
2022-11-17T09:21:36.509Z,1.07
2022-11-17T09:24:03.422Z,1.27
2022-11-17T09:26:30.223Z,1.20
2022-11-17T09:29:00.692Z,1.57
2022-11-17T09:31:27.515Z,2.00
2022-11-17T09:33:54.361Z,2.10
2022-11-17T09:36:21.253Z,3.23
2022-11-17T09:38:48.185Z,3.23
2022-11-17T09:41:28.190Z,3.87
2022-11-17T09:44:03.753Z,2.70
2022-11-17T09:46:41.304Z,2.17
2022-11-17T09:49:14.857Z,1.90
2022-11-17T09:51:42.857Z,1.60
2022-11-17T09:54:18.775Z,1.70
2022-11-17T09:56:46.311Z,1.50
2022-11-17T09:59:13.456Z,1.10
2022-11-17T10:01:40.360Z,0.70
2022-11-17T10:04:14.571Z,1.00
2022-11-17T10:06:41.994Z,0.60
2022-11-17T10:09:17.789Z,0.97
2022-11-17T10:11:47.919Z,1.07
2022-11-17T10:14:16.782Z,1.23
2022-11-17T10:16:54.474Z,0.90
2022-11-17T10:19:25.005Z,1.83
2022-11-17T10:22:34.572Z,1.10
2022-11-17T10:25:01.336Z,0.93
2022-11-17T10:27:32.416Z,1.10
2022-11-17T10:30:00.335Z,1.10
2022-11-17T10:32:28.535Z,1.57
2022-11-17T10:34:55.395Z,1.30
2022-11-17T10:37:25.037Z,1.33
2022-11-17T10:39:51.770Z,1.40
2022-11-17T10:42:29.548Z,1.10
2022-11-17T10:45:00.181Z,1.80
2022-11-17T10:47:30.534Z,1.30
2022-11-17T10:50:05.601Z,1.20
2022-11-17T10:52:32.385Z,1.60
2022-11-17T10:55:17.677Z,1.27
2022-11-17T10:57:45.427Z,1.40
2022-11-17T11:00:24.233Z,1.33
2022-11-17T11:02:50.979Z,1.20
2022-11-17T11:05:18.655Z,1.60
2022-11-17T11:07:45.660Z,1.53
2022-11-17T11:10:38.791Z,1.00
2022-11-17T11:13:13.781Z,1.27
2022-11-17T11:15:40.533Z,0.90
2022-11-17T11:18:14.444Z,0.77
2022-11-17T11:20:43.636Z,0.90
2022-11-17T11:23:20.559Z,0.70
2022-11-17T11:26:04.805Z,0.70
2022-11-17T11:28:48.017Z,0.70
2022-11-17T11:32:01.576Z,0.80
2022-11-17T11:34:54.102Z,0.90
2022-11-17T11:37:20.875Z,0.90
2022-11-17T11:40:15.680Z,0.70
2022-11-17T11:43:00.231Z,0.70
2022-11-17T11:45:41.948Z,0.73
2022-11-17T11:48:21.335Z,0.90
2022-11-17T11:50:58.477Z,0.87
2022-11-17T11:53:58.792Z,0.83
2022-11-17T11:56:30.227Z,1.00
2022-11-17T11:59:02.760Z,0.70
2022-11-17T12:01:42.133Z,0.80
2022-11-17T12:04:29.045Z,0.73
2022-11-17T12:07:07.541Z,0.60
2022-11-17T12:10:04.769Z,0.70
2022-11-17T12:12:33.156Z,0.60
2022-11-17T12:15:08.805Z,0.70
2022-11-17T12:17:35.601Z,0.73
2022-11-17T12:20:09.250Z,0.63
2022-11-17T12:22:37.313Z,0.60
2022-11-17T12:25:13.791Z,0.40
2022-11-17T12:27:41.958Z,0.40
2022-11-17T12:30:34.707Z,0.50
2022-11-17T12:33:05.037Z,0.60
2022-11-17T12:35:31.735Z,0.50
2022-11-17T12:38:16.585Z,0.57
2022-11-17T12:40:47.494Z,0.80
2022-11-17T12:43:20.032Z,0.57
2022-11-17T12:45:55.671Z,1.13
2022-11-17T12:48:35.564Z,0.70
2022-11-17T12:51:21.282Z,0.57
2022-11-17T12:53:56.592Z,1.00
2022-11-17T12:56:45.280Z,0.73
2022-11-17T12:59:30.276Z,1.10
2022-11-17T13:02:02.726Z,1.17
2022-11-17T13:04:49.389Z,1.10
2022-11-17T13:07:25.465Z,1.70
2022-11-17T13:09:57.275Z,1.20
2022-11-17T13:12:25.785Z,1.40
2022-11-17T13:15:00.172Z,0.80
2022-11-17T13:17:55.246Z,0.93
2022-11-17T13:20:29.567Z,0.70
2022-11-17T13:23:07.744Z,0.60
2022-11-17T13:25:34.660Z,0.90
2022-11-17T13:28:04.830Z,0.77
2022-11-17T13:30:32.697Z,1.00
2022-11-17T13:33:02.418Z,1.20
2022-11-17T13:35:33.835Z,1.30
2022-11-17T13:38:01.431Z,1.83
2022-11-17T13:40:28.531Z,1.87
2022-11-17T13:42:55.280Z,1.20
2022-11-17T13:45:22.068Z,1.43
2022-11-17T13:47:49.545Z,1.93
2022-11-17T13:50:23.583Z,1.40
2022-11-17T13:53:15.234Z,1.17
2022-11-17T13:55:48.312Z,0.97
2022-11-17T13:58:25.861Z,1.23
2022-11-17T14:00:54.323Z,0.93
2022-11-17T14:03:33.346Z,0.60
2022-11-17T14:06:00.108Z,0.80
2022-11-17T14:08:31.986Z,0.80
2022-11-17T14:11:11.053Z,0.77
2022-11-17T14:13:42.474Z,0.80
2022-11-17T14:16:24.997Z,0.63
2022-11-17T14:19:22.488Z,0.53
2022-11-17T14:22:08.131Z,0.40
2022-11-17T14:24:35.193Z,0.70
2022-11-17T14:27:02.169Z,0.70
2022-11-17T14:29:29.448Z,0.90
2022-11-17T14:31:56.846Z,0.80
2022-11-17T14:34:23.823Z,0.63
2022-11-17T14:36:53.062Z,0.50
2022-11-17T14:39:19.983Z,0.70
2022-11-17T14:41:48.441Z,0.80
2022-11-17T14:44:15.361Z,2.30
2022-11-17T14:46:42.380Z,1.17
2022-11-17T14:49:09.234Z,0.80
2022-11-17T14:51:36.059Z,0.63
2022-11-17T14:54:03.918Z,0.60
2022-11-17T14:56:30.704Z,0.70
2022-11-17T14:58:58.616Z,0.67
2022-11-17T15:01:38.363Z,0.67
2022-11-17T15:04:27.072Z,0.60
2022-11-17T15:06:52.682Z,0.90
2022-11-17T15:09:20.597Z,0.90
2022-11-17T15:11:47.969Z,1.90
2022-11-17T15:14:15.000Z,1.40
2022-11-17T15:16:41.915Z,2.10
2022-11-17T15:19:08.673Z,3.00
2022-11-17T15:21:35.445Z,10.77
2022-11-17T15:24:03.434Z,25.87
2022-11-17T15:26:30.213Z,14.87
2022-11-17T15:28:59.619Z,11.00
2022-11-17T15:31:26.383Z,10.73
2022-11-17T15:33:53.155Z,8.40
2022-11-17T15:36:20.955Z,7.53
2022-11-17T15:38:47.954Z,3.70
2022-11-17T15:41:15.151Z,3.13
2022-11-17T15:43:43.344Z,2.50
2022-11-17T15:46:17.867Z,3.53
2022-11-17T15:48:45.714Z,5.73
2022-11-17T15:51:14.366Z,5.77
2022-11-17T15:53:41.448Z,5.10
2022-11-17T15:56:12.363Z,3.37
2022-11-17T15:58:39.738Z,2.97
2022-11-17T16:01:29.092Z,3.43
2022-11-17T16:04:00.946Z,3.80
2022-11-17T16:06:28.340Z,4.30
2022-11-17T16:08:55.185Z,3.30
2022-11-17T16:11:22.042Z,2.17
2022-11-17T16:13:48.729Z,2.33
2022-11-17T16:16:15.606Z,3.37
2022-11-17T16:18:42.476Z,4.67
2022-11-17T16:21:11.498Z,2.60
2022-11-17T16:23:41.771Z,4.20
2022-11-17T16:26:09.428Z,4.13
2022-11-17T16:28:36.729Z,3.37
2022-11-17T16:31:26.468Z,2.53
2022-11-17T16:33:54.704Z,3.93
2022-11-17T16:36:23.480Z,3.50
2022-11-17T16:39:02.171Z,3.07
2022-11-17T16:41:31.626Z,4.20
2022-11-17T16:43:58.581Z,2.93
2022-11-17T16:46:27.008Z,3.60
2022-11-17T16:48:54.274Z,3.20
2022-11-17T16:51:21.279Z,2.87
2022-11-17T16:53:49.067Z,3.33
2022-11-17T16:56:15.989Z,2.50
2022-11-17T16:58:42.799Z,2.20
2022-11-17T17:01:14.057Z,2.93
2022-11-17T17:03:41.122Z,3.07
2022-11-17T17:06:12.399Z,4.47
2022-11-17T17:08:39.181Z,3.97
2022-11-17T17:11:07.753Z,3.50
2022-11-17T17:13:35.011Z,2.80
2022-11-17T17:16:09.783Z,2.37
2022-11-17T17:18:36.998Z,4.33
2022-11-17T17:21:03.983Z,2.57
2022-11-17T17:23:30.884Z,2.40
2022-11-17T17:26:04.939Z,3.00
2022-11-17T17:28:32.529Z,2.60
2022-11-17T17:30:59.502Z,2.40
2022-11-17T17:33:27.171Z,3.50
2022-11-17T17:35:53.893Z,3.03
2022-11-17T17:38:20.718Z,2.77
2022-11-17T17:40:47.566Z,2.93
2022-11-17T17:43:14.315Z,2.80
2022-11-17T17:45:41.068Z,3.93
2022-11-17T17:48:07.802Z,4.20
2022-11-17T17:50:34.546Z,3.60
2022-11-17T17:53:01.337Z,3.93
2022-11-17T17:55:28.125Z,3.87
2022-11-17T17:57:54.931Z,3.40
2022-11-17T18:00:21.800Z,3.07
2022-11-17T18:02:48.841Z,3.93
2022-11-17T18:05:16.097Z,4.20
2022-11-17T18:07:42.939Z,5.47
2022-11-17T18:10:09.785Z,4.50
2022-11-17T18:12:36.556Z,4.13
2022-11-17T18:15:03.495Z,4.27
2022-11-17T18:17:30.247Z,11.80
2022-11-17T18:19:57.301Z,12.70
2022-11-17T18:22:23.999Z,12.40
2022-11-17T18:24:50.763Z,14.87
2022-11-17T18:27:17.567Z,14.87
2022-11-17T18:29:44.280Z,17.90
2022-11-17T18:32:11.003Z,26.30
2022-11-17T18:34:37.706Z,28.03
2022-11-17T18:37:04.480Z,32.73
2022-11-17T18:39:32.834Z,29.53
2022-11-17T18:41:59.657Z,33.00
2022-11-17T18:44:26.504Z,27.97
2022-11-17T18:46:55.023Z,24.90
2022-11-17T18:49:25.014Z,22.57
2022-11-17T18:51:51.742Z,17.73
2022-11-17T18:54:18.474Z,16.00
2022-11-17T18:56:45.304Z,14.53
2022-11-17T18:59:12.301Z,11.97
2022-11-17T19:01:40.387Z,11.70
2022-11-17T19:04:07.455Z,13.57
2022-11-17T19:06:34.257Z,11.80
2022-11-17T19:09:01.081Z,11.40
2022-11-17T19:11:28.547Z,11.27
2022-11-17T19:13:55.445Z,12.63
2022-11-17T19:16:25.872Z,13.80
2022-11-17T19:18:53.706Z,8.63
2022-11-17T19:21:27.779Z,7.93
2022-11-17T19:23:56.578Z,6.60
2022-11-17T19:26:27.939Z,5.83
2022-11-17T19:28:55.822Z,7.27
2022-11-17T19:31:22.609Z,5.73
2022-11-17T19:33:50.209Z,5.37
2022-11-17T19:36:18.750Z,4.60
2022-11-17T19:38:48.024Z,4.83
2022-11-17T19:41:16.928Z,4.10
2022-11-17T19:43:45.677Z,5.73
2022-11-17T19:46:14.032Z,4.70
2022-11-17T19:48:41.107Z,5.97
2022-11-17T19:51:23.725Z,2.87
2022-11-17T19:53:51.849Z,4.70
2022-11-17T19:56:18.697Z,4.43
2022-11-17T19:58:45.845Z,4.07
2022-11-17T20:01:20.555Z,4.50
2022-11-17T20:03:47.415Z,3.77
2022-11-17T20:06:15.726Z,4.30
2022-11-17T20:08:42.586Z,3.83
2022-11-17T20:11:14.214Z,3.80
2022-11-17T20:13:41.700Z,3.77
2022-11-17T20:16:17.974Z,4.70
2022-11-17T20:18:45.153Z,4.70
2022-11-17T20:21:13.947Z,7.53
2022-11-17T20:23:40.981Z,6.73
2022-11-17T20:26:12.765Z,7.80
2022-11-17T20:28:39.614Z,9.47
2022-11-17T20:31:20.192Z,6.37
2022-11-17T20:33:47.193Z,11.50
2022-11-17T20:36:21.350Z,8.77
2022-11-17T20:38:55.356Z,12.80
2022-11-17T20:41:23.401Z,12.30
2022-11-17T20:43:51.185Z,11.20
2022-11-17T20:46:18.025Z,8.23
2022-11-17T20:48:44.989Z,9.33
2022-11-17T20:51:13.181Z,10.13
2022-11-17T20:53:40.097Z,15.03
2022-11-17T20:56:09.486Z,11.93
2022-11-17T20:58:36.416Z,10.80
2022-11-17T21:01:10.661Z,8.00
2022-11-17T21:03:37.443Z,6.77
2022-11-17T21:06:04.585Z,7.20
2022-11-17T21:08:36.332Z,6.70
2022-11-17T21:11:04.775Z,6.70
2022-11-17T21:13:35.123Z,4.70
2022-11-17T21:16:05.540Z,5.50
2022-11-17T21:18:32.516Z,3.47
2022-11-17T21:21:00.267Z,2.43
2022-11-17T21:23:27.733Z,1.90
2022-11-17T21:25:54.410Z,2.53
2022-11-17T21:28:21.328Z,2.67
2022-11-17T21:30:48.086Z,1.50
2022-11-17T21:33:14.873Z,1.80
2022-11-17T21:35:41.681Z,1.20
2022-11-17T21:38:10.763Z,1.20
2022-11-17T21:40:37.539Z,1.50
2022-11-17T21:43:04.533Z,1.57
2022-11-17T21:45:32.886Z,1.10
2022-11-17T21:47:59.788Z,0.80
2022-11-17T21:50:26.622Z,1.10
2022-11-17T21:52:53.360Z,1.00
2022-11-17T21:55:20.106Z,1.00
2022-11-17T21:57:50.201Z,1.00
2022-11-17T22:00:17.928Z,1.37
2022-11-17T22:02:44.793Z,2.00
2022-11-17T22:05:11.590Z,1.13
2022-11-17T22:07:38.410Z,1.53
2022-11-17T22:10:05.775Z,2.50
2022-11-17T22:12:32.530Z,1.70
2022-11-17T22:14:59.317Z,1.17
2022-11-17T22:17:26.061Z,1.30
2022-11-17T22:19:52.789Z,1.50
2022-11-17T22:22:19.535Z,2.20
2022-11-17T22:24:49.830Z,1.40
2022-11-17T22:27:16.827Z,1.37
2022-11-17T22:29:43.568Z,1.40
2022-11-17T22:32:10.289Z,1.10
2022-11-17T22:34:37.064Z,1.10
2022-11-17T22:37:03.802Z,1.40
2022-11-17T22:39:30.529Z,0.93
2022-11-17T22:41:57.282Z,1.37
2022-11-17T22:44:25.203Z,1.10
2022-11-17T22:46:51.919Z,1.10
2022-11-17T22:49:18.934Z,1.20
2022-11-17T22:52:04.067Z,1.20
2022-11-17T22:54:31.114Z,3.47
2022-11-17T22:56:58.104Z,1.27
2022-11-17T22:59:25.876Z,1.40
2022-11-17T23:01:52.579Z,0.73
2022-11-17T23:04:19.322Z,0.90
2022-11-17T23:06:46.126Z,1.30
2022-11-17T23:09:13.408Z,1.10
2022-11-17T23:11:40.206Z,1.00
2022-11-17T23:14:08.285Z,1.00
2022-11-17T23:16:35.667Z,1.03
2022-11-17T23:19:02.440Z,0.87
2022-11-17T23:21:29.392Z,0.70
2022-11-17T23:23:56.132Z,0.87
2022-11-17T23:26:22.976Z,0.90
2022-11-17T23:28:49.740Z,0.83
2022-11-17T23:31:16.968Z,0.80
2022-11-17T23:33:47.621Z,0.70
2022-11-17T23:36:18.874Z,0.67
2022-11-17T23:38:45.942Z,0.77
2022-11-17T23:41:14.486Z,1.00
2022-11-17T23:43:41.307Z,0.80
2022-11-17T23:46:10.395Z,0.70
2022-11-17T23:48:37.144Z,0.80
2022-11-17T23:51:11.530Z,1.00
2022-11-17T23:53:38.240Z,0.83
2022-11-17T23:56:05.579Z,1.20
2022-11-17T23:58:32.333Z,0.77
